Accueil
METAR-TAF:

METAR-TAF

Aéroports :

Aéroport international de Nouakchott-Oumtounsy

Nouakchott, Mauritanie

latitude: 18-18-36N, longitude: 015-58-11W, altitude: 3 m

Observation

Le bulletin a été fait il y a 23 minutes, à 22:00 UTC
Vent 14 kt de nord/nord-ouest
Température 22°C
Humidité 73%
Pression 1012 hPa
Visibilité 10 km ou plus
pas de nuages en-dessous de 1500 mètres et pas de cumulonimbus.

METAR: GQNO 192200Z 34014KT CAVOK 22/17 Q1012 NOSIG

Heure: 22:23 (22:23 UTC)

Prévision

Le bulletin a été fait il y a 5 heures et 23 minutes, à 17:00 UTC
Prévision valable du 19 à 18 UTC au 20 à 24 UTC
Vent 15 kt de nord/nord-ouest
Visibilité: 6000 m
Temporairement
du 19 à 18 UTC au 19 à 20 UTC
Visibilité: 3500 m
Chasse-sable élevée
Temporairement
du 20 à 10 UTC au 20 à 15 UTC
Vent 12 kt de nord-est

TAF: GQNO 191700Z 1918/2024 34015KT 6000 NSC TEMPO 1918/1920 3500 BLSA TEMPO 2010/2015 04012KT

Observations et prévisions météorologiques de plus de 4000 aéroports (messages METAR et TAF).

Les stations disponibles sont représentées par des disques jaunes et rouges sur la carte.

Passer la souris dessus pour voir le nom de la station.

Cliquer dessus pour voir les observations et prévisions météorologiques.

Pour changer de carte: cliquez sur les boutons verts avec une croix noire pour zoomer, sur le bouton vert avec un tiret pour effectuer un zoom arrière, ou sur les flèches vertes pour les cartes adjacentes.


METAR-TAF: